sensor_id;sensor_type;location;lat;lon;timestamp;temperature;humidity
26655;DHT22;14278;50.784;4.630;2024-03-17T00:02:08;9.90;99.90
26655;DHT22;14278;50.784;4.630;2024-03-17T00:04:34;9.70;99.90
26655;DHT22;14278;50.784;4.630;2024-03-17T00:07:01;9.90;99.90
26655;DHT22;14278;50.784;4.630;2024-03-17T00:09:27;9.70;99.90
26655;DHT22;14278;50.784;4.630;2024-03-17T00:11:53;8.90;99.90
26655;DHT22;14278;50.784;4.630;2024-03-17T00:14:19;8.90;99.90
26655;DHT22;14278;50.784;4.630;2024-03-17T00:16:48;9.10;99.90
26655;DHT22;14278;50.784;4.630;2024-03-17T00:19:14;9.40;99.90
26655;DHT22;14278;50.784;4.630;2024-03-17T00:21:49;9.50;99.90
26655;DHT22;14278;50.784;4.630;2024-03-17T00:24:21;9.80;99.90
26655;DHT22;14278;50.784;4.630;2024-03-17T00:26:56;9.50;99.90
26655;DHT22;14278;50.784;4.630;2024-03-17T00:29:49;9.30;99.90
26655;DHT22;14278;50.784;4.630;2024-03-17T00:32:16;9.30;99.90
26655;DHT22;14278;50.784;4.630;2024-03-17T00:50:10;8.80;99.90
26655;DHT22;14278;50.784;4.630;2024-03-17T00:53:03;8.90;99.90
26655;DHT22;14278;50.784;4.630;2024-03-17T00:55:30;9.10;99.90
26655;DHT22;14278;50.784;4.630;2024-03-17T00:58:19;9.40;99.90
26655;DHT22;14278;50.784;4.630;2024-03-17T01:00:50;9.60;99.90
26655;DHT22;14278;50.784;4.630;2024-03-17T01:13:52;9.90;99.90
26655;DHT22;14278;50.784;4.630;2024-03-17T01:16:20;9.80;99.90
26655;DHT22;14278;50.784;4.630;2024-03-17T01:27:01;9.70;99.90
26655;DHT22;14278;50.784;4.630;2024-03-17T01:29:27;8.90;99.90
26655;DHT22;14278;50.784;4.630;2024-03-17T01:52:42;8.90;99.90
26655;DHT22;14278;50.784;4.630;2024-03-17T02:18:41;9.70;99.90
26655;DHT22;14278;50.784;4.630;2024-03-17T02:21:06;9.90;99.90
26655;DHT22;14278;50.784;4.630;2024-03-17T02:23:34;10.20;99.90
26655;DHT22;14278;50.784;4.630;2024-03-17T02:26:21;10.50;99.90
26655;DHT22;14278;50.784;4.630;2024-03-17T02:35:02;9.30;99.90
26655;DHT22;14278;50.784;4.630;2024-03-17T02:41:01;8.90;99.90
26655;DHT22;14278;50.784;4.630;2024-03-17T02:48:39;8.60;99.90
26655;DHT22;14278;50.784;4.630;2024-03-17T02:56:27;9.00;99.90
26655;DHT22;14278;50.784;4.630;2024-03-17T02:58:53;9.30;99.90
26655;DHT22;14278;50.784;4.630;2024-03-17T03:01:19;9.60;99.90
26655;DHT22;14278;50.784;4.630;2024-03-17T03:19:11;9.90;99.90
26655;DHT22;14278;50.784;4.630;2024-03-17T03:21:42;9.90;99.90
26655;DHT22;14278;50.784;4.630;2024-03-17T03:24:39;10.30;99.90
26655;DHT22;14278;50.784;4.630;2024-03-17T03:27:05;10.40;99.90
26655;DHT22;14278;50.784;4.630;2024-03-17T03:29:31;10.20;99.90
26655;DHT22;14278;50.784;4.630;2024-03-17T03:32:21;9.90;99.90
26655;DHT22;14278;50.784;4.630;2024-03-17T04:26:55;9.10;99.90
26655;DHT22;14278;50.784;4.630;2024-03-17T04:32:26;9.50;99.90
26655;DHT22;14278;50.784;4.630;2024-03-17T04:34:54;9.50;99.90
26655;DHT22;14278;50.784;4.630;2024-03-17T04:37:22;9.20;99.90
26655;DHT22;14278;50.784;4.630;2024-03-17T04:42:52;9.20;99.90
26655;DHT22;14278;50.784;4.630;2024-03-17T04:45:18;9.00;99.90
26655;DHT22;14278;50.784;4.630;2024-03-17T04:47:44;8.90;99.90
26655;DHT22;14278;50.784;4.630;2024-03-17T04:50:10;9.30;99.90
26655;DHT22;14278;50.784;4.630;2024-03-17T04:52:38;9.50;99.90
26655;DHT22;14278;50.784;4.630;2024-03-17T04:55:04;9.20;99.90
26655;DHT22;14278;50.784;4.630;2024-03-17T04:57:29;9.20;99.90
26655;DHT22;14278;50.784;4.630;2024-03-17T04:59:55;9.10;99.90
26655;DHT22;14278;50.784;4.630;2024-03-17T05:02:23;9.60;99.90
26655;DHT22;14278;50.784;4.630;2024-03-17T05:04:51;9.80;99.90
26655;DHT22;14278;50.784;4.630;2024-03-17T05:07:17;9.60;99.90
26655;DHT22;14278;50.784;4.630;2024-03-17T05:09:42;9.50;99.90
26655;DHT22;14278;50.784;4.630;2024-03-17T05:12:09;9.60;99.90
26655;DHT22;14278;50.784;4.630;2024-03-17T05:14:35;9.60;99.90
26655;DHT22;14278;50.784;4.630;2024-03-17T05:17:01;9.70;99.90
26655;DHT22;14278;50.784;4.630;2024-03-17T05:19:27;9.80;99.90
26655;DHT22;14278;50.784;4.630;2024-03-17T05:21:52;9.70;99.90
26655;DHT22;14278;50.784;4.630;2024-03-17T05:24:33;9.60;99.90
26655;DHT22;14278;50.784;4.630;2024-03-17T05:26:59;9.50;99.90
26655;DHT22;14278;50.784;4.630;2024-03-17T05:29:24;9.50;99.90
26655;DHT22;14278;50.784;4.630;2024-03-17T05:40:57;9.00;99.90
26655;DHT22;14278;50.784;4.630;2024-03-17T05:43:26;8.80;99.90
26655;DHT22;14278;50.784;4.630;2024-03-17T05:45:52;8.90;99.90
26655;DHT22;14278;50.784;4.630;2024-03-17T05:48:18;9.10;99.90
26655;DHT22;14278;50.784;4.630;2024-03-17T05:50:46;9.50;99.90
26655;DHT22;14278;50.784;4.630;2024-03-17T05:53:12;9.60;99.90
26655;DHT22;14278;50.784;4.630;2024-03-17T05:55:41;9.80;99.90
26655;DHT22;14278;50.784;4.630;2024-03-17T05:58:08;10.10;99.90
26655;DHT22;14278;50.784;4.630;2024-03-17T06:00:40;9.90;99.90
26655;DHT22;14278;50.784;4.630;2024-03-17T06:03:06;9.60;99.90
26655;DHT22;14278;50.784;4.630;2024-03-17T06:05:33;9.60;99.90
26655;DHT22;14278;50.784;4.630;2024-03-17T06:08:00;9.70;99.90
26655;DHT22;14278;50.784;4.630;2024-03-17T06:10:27;9.70;99.90
26655;DHT22;14278;50.784;4.630;2024-03-17T06:12:53;9.80;99.90
26655;DHT22;14278;50.784;4.630;2024-03-17T06:15:19;10.10;99.90
26655;DHT22;14278;50.784;4.630;2024-03-17T06:17:46;9.90;99.90
26655;DHT22;14278;50.784;4.630;2024-03-17T06:20:12;10.40;99.90
26655;DHT22;14278;50.784;4.630;2024-03-17T06:22:39;10.80;99.90
26655;DHT22;14278;50.784;4.630;2024-03-17T06:25:06;11.30;99.90
26655;DHT22;14278;50.784;4.630;2024-03-17T06:27:32;11.20;99.90
26655;DHT22;14278;50.784;4.630;2024-03-17T06:30:03;10.90;99.90
26655;DHT22;14278;50.784;4.630;2024-03-17T06:32:34;10.90;99.90
26655;DHT22;14278;50.784;4.630;2024-03-17T06:35:03;10.80;99.90
26655;DHT22;14278;50.784;4.630;2024-03-17T06:37:35;10.90;99.90
26655;DHT22;14278;50.784;4.630;2024-03-17T06:40:02;11.20;99.90
26655;DHT22;14278;50.784;4.630;2024-03-17T06:42:31;11.50;99.90
26655;DHT22;14278;50.784;4.630;2024-03-17T06:44:57;11.50;99.90
26655;DHT22;14278;50.784;4.630;2024-03-17T06:47:23;11.50;99.90
26655;DHT22;14278;50.784;4.630;2024-03-17T06:49:52;11.50;99.90
26655;DHT22;14278;50.784;4.630;2024-03-17T06:52:17;11.30;99.90
26655;DHT22;14278;50.784;4.630;2024-03-17T06:54:43;11.20;99.90
26655;DHT22;14278;50.784;4.630;2024-03-17T06:57:13;11.30;99.90
26655;DHT22;14278;50.784;4.630;2024-03-17T06:59:40;11.50;99.90
26655;DHT22;14278;50.784;4.630;2024-03-17T07:02:07;11.60;99.90
26655;DHT22;14278;50.784;4.630;2024-03-17T07:04:35;11.30;99.90
26655;DHT22;14278;50.784;4.630;2024-03-17T07:07:01;11.60;99.90
26655;DHT22;14278;50.784;4.630;2024-03-17T07:09:26;11.50;99.90
26655;DHT22;14278;50.784;4.630;2024-03-17T07:11:52;11.40;99.90
26655;DHT22;14278;50.784;4.630;2024-03-17T07:14:19;11.40;99.90
26655;DHT22;14278;50.784;4.630;2024-03-17T07:16:44;11.70;99.90
26655;DHT22;14278;50.784;4.630;2024-03-17T07:19:10;11.50;99.90
26655;DHT22;14278;50.784;4.630;2024-03-17T07:21:38;11.90;99.90
26655;DHT22;14278;50.784;4.630;2024-03-17T07:24:11;11.90;99.90
26655;DHT22;14278;50.784;4.630;2024-03-17T07:26:36;12.20;99.90
26655;DHT22;14278;50.784;4.630;2024-03-17T07:29:05;12.50;99.90
26655;DHT22;14278;50.784;4.630;2024-03-17T07:31:31;12.20;99.90
26655;DHT22;14278;50.784;4.630;2024-03-17T07:33:57;12.00;99.90
26655;DHT22;14278;50.784;4.630;2024-03-17T07:36:23;12.00;99.90
26655;DHT22;14278;50.784;4.630;2024-03-17T07:38:49;11.80;99.90
26655;DHT22;14278;50.784;4.630;2024-03-17T07:41:16;11.70;99.90
26655;DHT22;14278;50.784;4.630;2024-03-17T07:43:41;11.80;99.90
26655;DHT22;14278;50.784;4.630;2024-03-17T07:46:09;11.60;99.90
26655;DHT22;14278;50.784;4.630;2024-03-17T07:48:38;11.90;99.90
26655;DHT22;14278;50.784;4.630;2024-03-17T07:51:09;11.80;99.90
26655;DHT22;14278;50.784;4.630;2024-03-17T07:53:39;12.20;99.90
26655;DHT22;14278;50.784;4.630;2024-03-17T07:56:07;12.50;99.90
26655;DHT22;14278;50.784;4.630;2024-03-17T07:58:38;12.70;99.90
26655;DHT22;14278;50.784;4.630;2024-03-17T08:01:07;12.90;99.90
26655;DHT22;14278;50.784;4.630;2024-03-17T08:03:52;13.10;99.90
26655;DHT22;14278;50.784;4.630;2024-03-17T08:06:56;13.30;99.90
26655;DHT22;14278;50.784;4.630;2024-03-17T08:09:21;13.30;99.90
26655;DHT22;14278;50.784;4.630;2024-03-17T08:11:48;13.20;99.90
26655;DHT22;14278;50.784;4.630;2024-03-17T08:14:15;13.20;99.90
26655;DHT22;14278;50.784;4.630;2024-03-17T08:21:45;13.70;99.90
26655;DHT22;14278;50.784;4.630;2024-03-17T08:24:11;13.60;99.90
26655;DHT22;14278;50.784;4.630;2024-03-17T08:26:41;13.50;99.90
26655;DHT22;14278;50.784;4.630;2024-03-17T08:29:07;14.00;99.90
26655;DHT22;14278;50.784;4.630;2024-03-17T08:31:35;13.80;99.90
26655;DHT22;14278;50.784;4.630;2024-03-17T08:34:04;13.70;99.90
26655;DHT22;14278;50.784;4.630;2024-03-17T08:36:31;14.00;99.90
26655;DHT22;14278;50.784;4.630;2024-03-17T08:38:58;14.10;99.90
26655;DHT22;14278;50.784;4.630;2024-03-17T08:41:30;14.30;99.90
26655;DHT22;14278;50.784;4.630;2024-03-17T08:43:56;14.10;99.90
26655;DHT22;14278;50.784;4.630;2024-03-17T08:46:22;14.00;99.90
26655;DHT22;14278;50.784;4.630;2024-03-17T08:48:48;14.20;99.90
26655;DHT22;14278;50.784;4.630;2024-03-17T08:51:14;13.90;99.90
26655;DHT22;14278;50.784;4.630;2024-03-17T08:53:40;13.70;99.90
26655;DHT22;14278;50.784;4.630;2024-03-17T08:56:08;13.40;99.90
26655;DHT22;14278;50.784;4.630;2024-03-17T08:58:46;13.80;99.90
26655;DHT22;14278;50.784;4.630;2024-03-17T09:01:13;13.90;99.90
26655;DHT22;14278;50.784;4.630;2024-03-17T09:03:40;14.20;99.90
26655;DHT22;14278;50.784;4.630;2024-03-17T09:06:15;13.90;99.90
26655;DHT22;14278;50.784;4.630;2024-03-17T09:08:41;13.40;99.90
26655;DHT22;14278;50.784;4.630;2024-03-17T09:11:12;13.60;99.90
26655;DHT22;14278;50.784;4.630;2024-03-17T09:13:38;13.60;99.90
26655;DHT22;14278;50.784;4.630;2024-03-17T09:16:03;13.50;99.90
26655;DHT22;14278;50.784;4.630;2024-03-17T09:18:30;13.30;99.90
26655;DHT22;14278;50.784;4.630;2024-03-17T09:21:01;13.30;99.90
26655;DHT22;14278;50.784;4.630;2024-03-17T09:23:29;13.40;99.90
26655;DHT22;14278;50.784;4.630;2024-03-17T09:26:14;13.40;99.90
26655;DHT22;14278;50.784;4.630;2024-03-17T09:28:42;13.60;99.90
26655;DHT22;14278;50.784;4.630;2024-03-17T09:31:07;13.70;99.90
26655;DHT22;14278;50.784;4.630;2024-03-17T09:33:34;13.60;99.90
26655;DHT22;14278;50.784;4.630;2024-03-17T09:36:02;13.70;99.90
26655;DHT22;14278;50.784;4.630;2024-03-17T09:38:29;13.80;99.90
26655;DHT22;14278;50.784;4.630;2024-03-17T09:40:56;13.90;99.90
26655;DHT22;14278;50.784;4.630;2024-03-17T09:43:24;14.20;99.90
26655;DHT22;14278;50.784;4.630;2024-03-17T09:45:54;14.20;99.90
26655;DHT22;14278;50.784;4.630;2024-03-17T09:48:23;14.30;99.90
26655;DHT22;14278;50.784;4.630;2024-03-17T09:51:01;14.20;99.90
26655;DHT22;14278;50.784;4.630;2024-03-17T09:53:30;13.90;99.90
26655;DHT22;14278;50.784;4.630;2024-03-17T09:56:11;14.10;99.90
26655;DHT22;14278;50.784;4.630;2024-03-17T09:58:40;14.20;99.90
26655;DHT22;14278;50.784;4.630;2024-03-17T10:01:06;14.10;99.90
26655;DHT22;14278;50.784;4.630;2024-03-17T10:06:15;14.30;99.90
26655;DHT22;14278;50.784;4.630;2024-03-17T10:08:48;14.30;99.90
26655;DHT22;14278;50.784;4.630;2024-03-17T10:11:17;14.50;99.90
26655;DHT22;14278;50.784;4.630;2024-03-17T10:13:43;15.00;99.90
26655;DHT22;14278;50.784;4.630;2024-03-17T10:16:23;14.90;99.90
26655;DHT22;14278;50.784;4.630;2024-03-17T10:18:50;15.20;99.90
26655;DHT22;14278;50.784;4.630;2024-03-17T10:21:27;15.10;99.90
26655;DHT22;14278;50.784;4.630;2024-03-17T10:24:23;15.20;99.90
26655;DHT22;14278;50.784;4.630;2024-03-17T10:26:56;15.70;99.90
26655;DHT22;14278;50.784;4.630;2024-03-17T10:29:35;15.60;99.90
26655;DHT22;14278;50.784;4.630;2024-03-17T10:34:38;15.30;99.90
26655;DHT22;14278;50.784;4.630;2024-03-17T10:39:34;15.30;99.90
26655;DHT22;14278;50.784;4.630;2024-03-17T10:42:01;15.50;99.90
26655;DHT22;14278;50.784;4.630;2024-03-17T10:44:28;15.70;99.90
26655;DHT22;14278;50.784;4.630;2024-03-17T10:47:01;15.50;99.90
26655;DHT22;14278;50.784;4.630;2024-03-17T10:49:33;15.60;99.90
26655;DHT22;14278;50.784;4.630;2024-03-17T10:52:05;15.60;99.90
26655;DHT22;14278;50.784;4.630;2024-03-17T10:54:32;15.70;99.90
26655;DHT22;14278;50.784;4.630;2024-03-17T11:00:03;15.50;99.90
26655;DHT22;14278;50.784;4.630;2024-03-17T11:02:31;15.10;99.90
26655;DHT22;14278;50.784;4.630;2024-03-17T11:05:22;15.20;99.90
26655;DHT22;14278;50.784;4.630;2024-03-17T11:07:50;15.10;99.90
26655;DHT22;14278;50.784;4.630;2024-03-17T11:10:20;14.80;99.90
26655;DHT22;14278;50.784;4.630;2024-03-17T11:12:56;14.90;99.90
26655;DHT22;14278;50.784;4.630;2024-03-17T11:20:32;14.20;99.90
26655;DHT22;14278;50.784;4.630;2024-03-17T11:22:59;14.50;99.90
26655;DHT22;14278;50.784;4.630;2024-03-17T11:27:57;15.20;99.90
26655;DHT22;14278;50.784;4.630;2024-03-17T11:30:49;15.30;99.90
26655;DHT22;14278;50.784;4.630;2024-03-17T11:41:38;16.30;99.90
26655;DHT22;14278;50.784;4.630;2024-03-17T11:49:31;18.10;99.90
26655;DHT22;14278;50.784;4.630;2024-03-17T11:51:58;18.70;99.90
26655;DHT22;14278;50.784;4.630;2024-03-17T11:54:27;18.70;99.90
26655;DHT22;14278;50.784;4.630;2024-03-17T11:56:54;18.60;99.90
26655;DHT22;14278;50.784;4.630;2024-03-17T11:59:21;18.30;99.90
26655;DHT22;14278;50.784;4.630;2024-03-17T12:01:48;18.60;99.90
26655;DHT22;14278;50.784;4.630;2024-03-17T12:04:15;18.30;99.90
26655;DHT22;14278;50.784;4.630;2024-03-17T12:06:45;18.30;99.90
26655;DHT22;14278;50.784;4.630;2024-03-17T12:11:46;17.90;99.90
26655;DHT22;14278;50.784;4.630;2024-03-17T12:14:16;17.60;99.90
26655;DHT22;14278;50.784;4.630;2024-03-17T12:16:55;16.90;99.90
26655;DHT22;14278;50.784;4.630;2024-03-17T12:19:22;16.70;99.90
26655;DHT22;14278;50.784;4.630;2024-03-17T12:21:50;16.30;99.90
26655;DHT22;14278;50.784;4.630;2024-03-17T12:24:19;16.30;99.90
26655;DHT22;14278;50.784;4.630;2024-03-17T12:26:46;16.50;99.90
26655;DHT22;14278;50.784;4.630;2024-03-17T12:29:38;16.60;99.90
26655;DHT22;14278;50.784;4.630;2024-03-17T12:34:38;16.70;99.90
26655;DHT22;14278;50.784;4.630;2024-03-17T12:37:05;16.80;99.90
26655;DHT22;14278;50.784;4.630;2024-03-17T12:39:34;16.90;99.90
26655;DHT22;14278;50.784;4.630;2024-03-17T12:42:09;17.10;99.90
26655;DHT22;14278;50.784;4.630;2024-03-17T12:44:40;17.20;99.90
26655;DHT22;14278;50.784;4.630;2024-03-17T12:47:14;17.00;99.90
26655;DHT22;14278;50.784;4.630;2024-03-17T12:49:45;16.80;99.90
26655;DHT22;14278;50.784;4.630;2024-03-17T12:55:07;16.90;99.90
26655;DHT22;14278;50.784;4.630;2024-03-17T12:57:54;16.90;99.90
26655;DHT22;14278;50.784;4.630;2024-03-17T13:00:59;16.90;99.90
26655;DHT22;14278;50.784;4.630;2024-03-17T13:03:28;16.90;99.90
26655;DHT22;14278;50.784;4.630;2024-03-17T13:05:54;17.00;99.90
26655;DHT22;14278;50.784;4.630;2024-03-17T13:08:23;16.90;99.90
26655;DHT22;14278;50.784;4.630;2024-03-17T13:10:52;16.90;99.90
26655;DHT22;14278;50.784;4.630;2024-03-17T13:13:17;16.70;99.90
26655;DHT22;14278;50.784;4.630;2024-03-17T13:15:43;16.90;99.90
26655;DHT22;14278;50.784;4.630;2024-03-17T13:18:11;16.80;99.90
26655;DHT22;14278;50.784;4.630;2024-03-17T13:20:42;17.00;99.90
26655;DHT22;14278;50.784;4.630;2024-03-17T13:23:07;17.00;99.90
26655;DHT22;14278;50.784;4.630;2024-03-17T13:25:33;16.70;99.90
26655;DHT22;14278;50.784;4.630;2024-03-17T13:28:08;16.80;99.90
26655;DHT22;14278;50.784;4.630;2024-03-17T13:30:34;16.70;99.90
26655;DHT22;14278;50.784;4.630;2024-03-17T13:33:02;16.60;99.90
26655;DHT22;14278;50.784;4.630;2024-03-17T13:35:33;16.10;99.90
26655;DHT22;14278;50.784;4.630;2024-03-17T13:38:00;16.10;99.90
26655;DHT22;14278;50.784;4.630;2024-03-17T13:40:28;16.00;99.90
26655;DHT22;14278;50.784;4.630;2024-03-17T13:42:55;16.00;99.90
26655;DHT22;14278;50.784;4.630;2024-03-17T13:45:24;16.00;99.90
26655;DHT22;14278;50.784;4.630;2024-03-17T13:48:01;15.90;99.90
26655;DHT22;14278;50.784;4.630;2024-03-17T13:50:29;16.30;99.90
26655;DHT22;14278;50.784;4.630;2024-03-17T13:52:57;16.20;99.90
26655;DHT22;14278;50.784;4.630;2024-03-17T13:55:24;16.20;99.90
26655;DHT22;14278;50.784;4.630;2024-03-17T13:57:52;16.10;99.90
26655;DHT22;14278;50.784;4.630;2024-03-17T14:00:21;16.30;99.90
26655;DHT22;14278;50.784;4.630;2024-03-17T14:02:48;16.30;99.90
26655;DHT22;14278;50.784;4.630;2024-03-17T14:05:15;16.30;99.90
26655;DHT22;14278;50.784;4.630;2024-03-17T14:07:41;16.50;99.90
26655;DHT22;14278;50.784;4.630;2024-03-17T14:10:09;16.70;99.90
26655;DHT22;14278;50.784;4.630;2024-03-17T14:12:35;16.60;99.90
26655;DHT22;14278;50.784;4.630;2024-03-17T14:15:04;16.50;99.90
26655;DHT22;14278;50.784;4.630;2024-03-17T14:17:39;16.30;99.90
26655;DHT22;14278;50.784;4.630;2024-03-17T14:20:06;16.30;99.90
26655;DHT22;14278;50.784;4.630;2024-03-17T14:22:38;15.90;99.90
26655;DHT22;14278;50.784;4.630;2024-03-17T14:25:17;16.00;99.90
26655;DHT22;14278;50.784;4.630;2024-03-17T14:27:47;15.70;99.90
26655;DHT22;14278;50.784;4.630;2024-03-17T14:30:18;15.50;99.90
26655;DHT22;14278;50.784;4.630;2024-03-17T14:32:44;15.40;99.90
26655;DHT22;14278;50.784;4.630;2024-03-17T14:35:14;15.30;99.90
26655;DHT22;14278;50.784;4.630;2024-03-17T14:37:43;15.40;99.90
26655;DHT22;14278;50.784;4.630;2024-03-17T14:40:14;15.40;99.90
26655;DHT22;14278;50.784;4.630;2024-03-17T14:42:47;15.50;99.90
26655;DHT22;14278;50.784;4.630;2024-03-17T14:45:13;15.30;99.90
26655;DHT22;14278;50.784;4.630;2024-03-17T14:47:39;15.20;99.90
26655;DHT22;14278;50.784;4.630;2024-03-17T14:50:05;15.50;99.90
26655;DHT22;14278;50.784;4.630;2024-03-17T14:52:31;15.50;99.90
26655;DHT22;14278;50.784;4.630;2024-03-17T14:54:57;15.30;99.90
26655;DHT22;14278;50.784;4.630;2024-03-17T14:57:23;15.30;99.90
26655;DHT22;14278;50.784;4.630;2024-03-17T14:59:48;15.30;99.90
26655;DHT22;14278;50.784;4.630;2024-03-17T15:02:14;15.40;99.90
26655;DHT22;14278;50.784;4.630;2024-03-17T15:04:44;15.40;99.90
26655;DHT22;14278;50.784;4.630;2024-03-17T15:07:09;15.50;99.90
26655;DHT22;14278;50.784;4.630;2024-03-17T15:09:36;15.40;99.90
26655;DHT22;14278;50.784;4.630;2024-03-17T15:12:02;15.20;99.90
26655;DHT22;14278;50.784;4.630;2024-03-17T15:14:28;15.20;99.90
26655;DHT22;14278;50.784;4.630;2024-03-17T15:16:57;15.50;99.90
26655;DHT22;14278;50.784;4.630;2024-03-17T15:19:22;15.50;99.90
26655;DHT22;14278;50.784;4.630;2024-03-17T15:21:48;15.60;99.90
26655;DHT22;14278;50.784;4.630;2024-03-17T15:24:13;15.70;99.90
26655;DHT22;14278;50.784;4.630;2024-03-17T15:26:39;15.60;99.90
26655;DHT22;14278;50.784;4.630;2024-03-17T15:29:05;15.70;99.90
26655;DHT22;14278;50.784;4.630;2024-03-17T15:31:30;15.60;99.90
26655;DHT22;14278;50.784;4.630;2024-03-17T15:33:56;15.60;99.90
26655;DHT22;14278;50.784;4.630;2024-03-17T15:36:23;15.40;99.90
26655;DHT22;14278;50.784;4.630;2024-03-17T15:38:50;15.40;99.90
26655;DHT22;14278;50.784;4.630;2024-03-17T15:41:16;15.40;99.90
26655;DHT22;14278;50.784;4.630;2024-03-17T15:43:42;15.50;99.90
26655;DHT22;14278;50.784;4.630;2024-03-17T15:46:20;15.40;99.90
26655;DHT22;14278;50.784;4.630;2024-03-17T15:48:48;15.40;99.90
26655;DHT22;14278;50.784;4.630;2024-03-17T15:51:14;15.60;99.90
26655;DHT22;14278;50.784;4.630;2024-03-17T15:53:41;15.70;99.90
26655;DHT22;14278;50.784;4.630;2024-03-17T15:56:07;15.80;99.90
26655;DHT22;14278;50.784;4.630;2024-03-17T15:58:32;15.60;99.90
26655;DHT22;14278;50.784;4.630;2024-03-17T16:00:59;15.40;99.90
26655;DHT22;14278;50.784;4.630;2024-03-17T16:03:31;15.40;99.90
26655;DHT22;14278;50.784;4.630;2024-03-17T16:06:02;15.30;99.90
26655;DHT22;14278;50.784;4.630;2024-03-17T16:08:33;15.20;99.90
26655;DHT22;14278;50.784;4.630;2024-03-17T16:10:59;14.90;99.90
26655;DHT22;14278;50.784;4.630;2024-03-17T16:16:01;14.70;99.90
26655;DHT22;14278;50.784;4.630;2024-03-17T16:18:28;14.80;99.90
26655;DHT22;14278;50.784;4.630;2024-03-17T16:21:16;14.80;99.90
26655;DHT22;14278;50.784;4.630;2024-03-17T16:26:24;14.90;99.90
26655;DHT22;14278;50.784;4.630;2024-03-17T16:28:50;15.00;99.90
26655;DHT22;14278;50.784;4.630;2024-03-17T16:34:00;15.20;99.90
26655;DHT22;14278;50.784;4.630;2024-03-17T16:39:09;15.00;99.90
26655;DHT22;14278;50.784;4.630;2024-03-17T16:41:36;14.90;99.90
26655;DHT22;14278;50.784;4.630;2024-03-17T16:49:12;14.80;99.90
26655;DHT22;14278;50.784;4.630;2024-03-17T16:51:39;14.60;99.90
26655;DHT22;14278;50.784;4.630;2024-03-17T16:54:06;14.60;99.90
26655;DHT22;14278;50.784;4.630;2024-03-17T16:56:32;14.60;99.90
26655;DHT22;14278;50.784;4.630;2024-03-17T16:58:58;14.40;99.90
26655;DHT22;14278;50.784;4.630;2024-03-17T17:01:24;14.20;99.90
26655;DHT22;14278;50.784;4.630;2024-03-17T17:03:53;14.10;99.90
26655;DHT22;14278;50.784;4.630;2024-03-17T17:06:20;14.00;99.90
26655;DHT22;14278;50.784;4.630;2024-03-17T17:08:46;14.10;99.90
26655;DHT22;14278;50.784;4.630;2024-03-17T17:11:16;14.10;99.90
26655;DHT22;14278;50.784;4.630;2024-03-17T17:13:43;14.10;99.90
26655;DHT22;14278;50.784;4.630;2024-03-17T17:16:14;13.90;99.90
26655;DHT22;14278;50.784;4.630;2024-03-17T17:19:05;13.90;99.90
26655;DHT22;14278;50.784;4.630;2024-03-17T17:21:33;14.00;99.90
26655;DHT22;14278;50.784;4.630;2024-03-17T17:23:59;14.10;99.90
26655;DHT22;14278;50.784;4.630;2024-03-17T17:26:27;14.00;99.90
26655;DHT22;14278;50.784;4.630;2024-03-17T17:28:55;14.00;99.90
26655;DHT22;14278;50.784;4.630;2024-03-17T17:31:25;13.90;99.90
26655;DHT22;14278;50.784;4.630;2024-03-17T17:33:51;14.10;99.90
26655;DHT22;14278;50.784;4.630;2024-03-17T17:36:17;14.10;99.90
26655;DHT22;14278;50.784;4.630;2024-03-17T17:38:44;13.90;99.90
26655;DHT22;14278;50.784;4.630;2024-03-17T17:41:09;13.90;99.90
26655;DHT22;14278;50.784;4.630;2024-03-17T17:43:43;13.80;99.90
26655;DHT22;14278;50.784;4.630;2024-03-17T17:46:13;14.00;99.90
26655;DHT22;14278;50.784;4.630;2024-03-17T17:48:40;13.90;99.90
26655;DHT22;14278;50.784;4.630;2024-03-17T17:51:08;14.20;99.90
26655;DHT22;14278;50.784;4.630;2024-03-17T17:53:34;14.00;99.90
26655;DHT22;14278;50.784;4.630;2024-03-17T17:56:10;14.00;99.90
26655;DHT22;14278;50.784;4.630;2024-03-17T17:58:37;13.90;99.90
26655;DHT22;14278;50.784;4.630;2024-03-17T18:01:04;14.10;99.90
26655;DHT22;14278;50.784;4.630;2024-03-17T18:03:32;13.90;99.90
26655;DHT22;14278;50.784;4.630;2024-03-17T18:05:58;13.80;99.90
26655;DHT22;14278;50.784;4.630;2024-03-17T18:08:25;13.50;99.90
26655;DHT22;14278;50.784;4.630;2024-03-17T18:10:51;13.60;99.90
26655;DHT22;14278;50.784;4.630;2024-03-17T18:13:18;13.50;99.90
26655;DHT22;14278;50.784;4.630;2024-03-17T18:15:44;13.50;99.90
26655;DHT22;14278;50.784;4.630;2024-03-17T18:18:13;13.40;99.90
26655;DHT22;14278;50.784;4.630;2024-03-17T18:20:40;13.40;99.90
26655;DHT22;14278;50.784;4.630;2024-03-17T18:23:27;13.50;99.90
26655;DHT22;14278;50.784;4.630;2024-03-17T18:25:54;13.40;99.90
26655;DHT22;14278;50.784;4.630;2024-03-17T18:28:20;13.30;99.90
26655;DHT22;14278;50.784;4.630;2024-03-17T18:30:47;13.20;99.90
26655;DHT22;14278;50.784;4.630;2024-03-17T18:33:13;13.20;99.90
26655;DHT22;14278;50.784;4.630;2024-03-17T18:35:52;13.10;99.90
26655;DHT22;14278;50.784;4.630;2024-03-17T18:38:19;13.10;99.90
26655;DHT22;14278;50.784;4.630;2024-03-17T18:41:08;13.00;99.90
26655;DHT22;14278;50.784;4.630;2024-03-17T18:43:36;13.00;99.90
26655;DHT22;14278;50.784;4.630;2024-03-17T18:46:12;13.00;99.90
26655;DHT22;14278;50.784;4.630;2024-03-17T18:48:41;13.20;99.90
26655;DHT22;14278;50.784;4.630;2024-03-17T18:51:11;13.20;99.90
26655;DHT22;14278;50.784;4.630;2024-03-17T18:53:38;13.00;99.90
26655;DHT22;14278;50.784;4.630;2024-03-17T18:56:05;13.20;99.90
26655;DHT22;14278;50.784;4.630;2024-03-17T18:58:30;13.20;99.90
26655;DHT22;14278;50.784;4.630;2024-03-17T19:00:57;13.10;99.90
26655;DHT22;14278;50.784;4.630;2024-03-17T19:03:24;13.10;99.90
26655;DHT22;14278;50.784;4.630;2024-03-17T19:05:54;13.10;99.90
26655;DHT22;14278;50.784;4.630;2024-03-17T19:08:22;13.30;99.90
26655;DHT22;14278;50.784;4.630;2024-03-17T19:10:56;13.30;99.90
26655;DHT22;14278;50.784;4.630;2024-03-17T19:13:23;13.40;99.90
26655;DHT22;14278;50.784;4.630;2024-03-17T19:16:02;13.30;99.90
26655;DHT22;14278;50.784;4.630;2024-03-17T19:18:34;13.40;99.90
26655;DHT22;14278;50.784;4.630;2024-03-17T19:21:13;13.30;99.90
26655;DHT22;14278;50.784;4.630;2024-03-17T19:23:44;13.60;99.90
26655;DHT22;14278;50.784;4.630;2024-03-17T19:26:14;13.60;99.90
26655;DHT22;14278;50.784;4.630;2024-03-17T19:28:44;13.50;99.90
26655;DHT22;14278;50.784;4.630;2024-03-17T19:31:13;13.50;99.90
26655;DHT22;14278;50.784;4.630;2024-03-17T19:33:39;13.50;99.90
26655;DHT22;14278;50.784;4.630;2024-03-17T19:36:06;13.40;99.90
26655;DHT22;14278;50.784;4.630;2024-03-17T19:38:35;13.10;99.90
26655;DHT22;14278;50.784;4.630;2024-03-17T19:41:03;13.10;99.90
26655;DHT22;14278;50.784;4.630;2024-03-17T19:43:31;13.10;99.90
26655;DHT22;14278;50.784;4.630;2024-03-17T19:46:03;13.30;99.90
26655;DHT22;14278;50.784;4.630;2024-03-17T19:48:35;13.30;99.90